Temp: 5.4°C   Baro: 1014.1mb
  Wind: 4.0mph   Dir: ESE (108°)
  Rain: 1.4mm (0.0mm/hr)
  Solar: 0W/m2  Hum: 95%
 
Bath Spa Weather Station Historical Data
Daily Summary for October 22, 2020 Units:  Metric    English   Both
Daily Weekly Monthly Yearly Custom
  High: Low: Average:
Temperature: 12.7 °C 9.5 °C 11.1 °C
Dew Point: 10.7 °C 8.3 °C 9.5 °C
Humidity: 93% 78% 87%
Wind Speed: 13.2km/h 0km/h 4km/h
Wind Gust: 25.7km/h - -
Wind- - West
Pressure: 1010 hPa 1002.3 hPa -
Precipitation: 0.51 mm    
Historical Graphs
 
 
Tabular Data for October 22, 2020
Time Temperature Dew Point Pressure Wind Wind Speed Wind Gust Humidity Rainfall Rate (Hourly) solar
00:04 12.1 °C 10.7 °C 1002.3 hPa WSW 11.3 km/h 22.5 km/h 88.4% 0 mm 0 W/m2
00:09 12 °C 10.7 °C 1002.6 hPa SW 10.3 km/h 24.1 km/h 89% 0 mm 0 W/m2
00:14 11.9 °C 10.6 °C 1002.6 hPa WSW 10.5 km/h 24.1 km/h 89% 0 mm 0 W/m2
00:19 11.9 °C 10.6 °C 1002.6 hPa West 6.8 km/h 17.7 km/h 89% 0 mm 0 W/m2
00:24 11.8 °C 10.5 °C 1002.6 hPa WSW 9.2 km/h 17.7 km/h 89% 0 mm 0 W/m2
00:29 11.7 °C 10.5 °C 1002.6 hPa SW 11.1 km/h 19.3 km/h 89.6% 0 mm 0 W/m2
00:34 11.7 °C 10.6 °C 1002.9 hPa SW 8.4 km/h 17.7 km/h 90% 0 mm 0 W/m2
00:39 11.6 °C 10.5 °C 1002.9 hPa SSW 9.3 km/h 20.9 km/h 90% 0 mm 0 W/m2
00:44 11.6 °C 10.5 °C 1002.9 hPa WSW 7.2 km/h 16.1 km/h 90% 0 mm 0 W/m2
00:49 11.6 °C 10.5 °C 1002.9 hPa WSW 5.1 km/h 14.5 km/h 90.2% 0 mm 0 W/m2
00:54 11.5 °C 10.6 °C 1002.9 hPa West 4.3 km/h 9.7 km/h 91% 0 mm 0 W/m2
00:59 11.4 °C 10.6 °C 1002.9 hPa SW 2.9 km/h 11.3 km/h 91% 0 mm 0 W/m2
01:04 11.4 °C 10.5 °C 1002.9 hPa West 5.3 km/h 11.3 km/h 91% 0 mm 0 W/m2
01:09 11.4 °C 10.5 °C 1003.3 hPa West 3.9 km/h 9.7 km/h 91% 0 mm 0 W/m2
01:14 11.5 °C 10.6 °C 1003.3 hPa West 1.3 km/h 9.7 km/h 91% 0 mm 0 W/m2
01:19 11.5 °C 10.6 °C 1003.3 hPa West 1.9 km/h 6.4 km/h 91% 0 mm 0 W/m2
01:24 11.4 °C 10.5 °C 1003.3 hPa West 1.6 km/h 4.8 km/h 91% 0 mm 0 W/m2
01:29 11.4 °C 10.5 °C 1003.3 hPa West 2.3 km/h 6.4 km/h 91% 0 mm 0 W/m2
01:34 11.4 °C 10.5 °C 1003.3 hPa West 1.6 km/h 6.4 km/h 91% 0 mm 0 W/m2
01:39 11.4 °C 10.5 °C 1003.3 hPa West 3.2 km/h 12.9 km/h 91% 0 mm 0 W/m2
01:44 11.4 °C 10.5 °C 1003.3 hPa West 4 km/h 12.9 km/h 91% 0 mm 0 W/m2
01:49 11.4 °C 10.5 °C 1003.3 hPa SW 10.6 km/h 19.3 km/h 91% 0 mm 0 W/m2
01:54 11.4 °C 10.5 °C 1003.3 hPa SW 10.3 km/h 19.3 km/h 91% 0 mm 0 W/m2
01:59 11.5 °C 10.6 °C 1003.3 hPa SW 12.1 km/h 19.3 km/h 90.6% 0 mm 0 W/m2
02:04 11.7 °C 10.6 °C 1003.6 hPa SSW 8.9 km/h 22.5 km/h 90% 0 mm 0 W/m2
02:09 11.7 °C 10.6 °C 1003.6 hPa SW 13.2 km/h 25.7 km/h 90% 0 mm 0 W/m2
02:14 11.7 °C 10.6 °C 1003.6 hPa WSW 11.3 km/h 17.7 km/h 90% 0 mm 0 W/m2
02:19 11.7 °C 10.6 °C 1003.6 hPa SW 9.7 km/h 17.7 km/h 90% 0 mm 0 W/m2
02:24 11.6 °C 10.5 °C 1003.9 hPa SW 9.2 km/h 14.5 km/h 90% 0 mm 0 W/m2
02:29 11.6 °C 10.5 °C 1003.6 hPa WSW 7.2 km/h 17.7 km/h 90% 0 mm 0 W/m2
02:34 11.6 °C 10.5 °C 1003.6 hPa SW 7.6 km/h 11.3 km/h 90% 0 mm 0 W/m2
02:39 11.6 °C 10.4 °C 1003.9 hPa WSW 6.4 km/h 12.9 km/h 90% 0 mm 0 W/m2
02:44 11.6 °C 10.4 °C 1003.9 hPa WSW 3.9 km/h 9.7 km/h 90% 0 mm 0 W/m2
02:49 11.4 °C 10.3 °C 1003.9 hPa WSW 3.2 km/h 8 km/h 90% 0 mm 0 W/m2
02:54 11.4 °C 10.3 °C 1003.9 hPa WSW 3.9 km/h 8 km/h 90% 0 mm 0 W/m2
02:59 11.4 °C 10.3 °C 1003.9 hPa SW 3.1 km/h 8 km/h 90% 0 mm 0 W/m2
03:04 11.4 °C 10.3 °C 1003.9 hPa SW 5.6 km/h 8 km/h 90% 0 mm 0 W/m2
03:09 11.4 °C 10.3 °C 1003.9 hPa SSW 1.9 km/h 9.7 km/h 90% 0 mm 0 W/m2
03:14 11.4 °C 10.3 °C 1003.9 hPa SW 2.1 km/h 6.4 km/h 90% 0 mm 0 W/m2
03:19 11.5 °C 10.4 °C 1003.9 hPa SW 3.4 km/h 6.4 km/h 90% 0 mm 0 W/m2
03:24 11.5 °C 10.4 °C 1003.9 hPa SW 2.3 km/h 6.4 km/h 90% 0 mm 0 W/m2
03:29 11.5 °C 10.4 °C 1003.9 hPa SW 1.9 km/h 6.4 km/h 90% 0 mm 0 W/m2
03:34 11.6 °C 10.4 °C 1003.9 hPa West 2.6 km/h 6.4 km/h 90% 0 mm 0 W/m2
03:39 11.6 °C 10.4 °C 1003.9 hPa WNW 1.3 km/h 8 km/h 90% 0 mm 0 W/m2
03:44 11.6 °C 10.5 °C 1003.9 hPa WSW 4 km/h 8 km/h 90% 0 mm 0 W/m2
03:49 11.6 °C 10.5 °C 1003.9 hPa West 3.9 km/h 9.7 km/h 90% 0 mm 0 W/m2
03:54 11.6 °C 10.5 °C 1003.9 hPa West 3.9 km/h 8 km/h 90% 0 mm 0 W/m2
03:59 11.7 °C 10.6 °C 1003.9 hPa West 6.1 km/h 11.3 km/h 90% 0 mm 0 W/m2
04:04 11.7 °C 10.6 °C 1003.9 hPa West 2.3 km/h 6.4 km/h 90% 0 mm 0 W/m2
04:09 11.7 °C 10.5 °C 1003.9 hPa West 1 km/h 4.8 km/h 89.4% 0 mm 0 W/m2
04:14 11.7 °C 10.4 °C 1004.3 hPa West 2.4 km/h 6.4 km/h 89% 0 mm 0 W/m2
04:19 11.7 °C 10.4 °C 1004.3 hPa West 6.1 km/h 16.1 km/h 89% 0 mm 0 W/m2
04:24 11.7 °C 10.4 °C 1004.3 hPa WNW 5.8 km/h 11.3 km/h 89% 0 mm 0 W/m2
04:29 11.7 °C 10.4 °C 1004.3 hPa West 5 km/h 14.5 km/h 89% 0 mm 0 W/m2
04:34 11.6 °C 10.3 °C 1004.3 hPa West 0.6 km/h 6.4 km/h 89% 0 mm 0 W/m2
04:39 11.6 °C 10.3 °C 1004.3 hPa WNW 3.4 km/h 8 km/h 89% 0 mm 0 W/m2
04:44 11.6 °C 10.3 °C 1004.3 hPa NW 2.6 km/h 8 km/h 89% 0 mm 0 W/m2
04:49 11.6 °C 10.3 °C 1004.3 hPa NW 2.1 km/h 6.4 km/h 89% 0 mm 0 W/m2
04:54 11.6 °C 10.2 °C 1004.3 hPa NW 1 km/h 4.8 km/h 89% 0 mm 0 W/m2
04:59 11.5 °C 10.2 °C 1004.3 hPa WNW 2.3 km/h 8 km/h 89% 0 mm 0 W/m2
05:04 11.6 °C 10.2 °C 1004.3 hPa ESE 0.6 km/h 8 km/h 89% 0 mm 0 W/m2
05:09 11.6 °C 10.3 °C 1004.3 hPa NE 1 km/h 8 km/h 89% 0 mm 0 W/m2
05:14 11.5 °C 10.2 °C 1004.3 hPa NW 1.3 km/h 6.4 km/h 89% 0 mm 0 W/m2
05:19 11.5 °C 10.2 °C 1004.3 hPa WNW 2.4 km/h 6.4 km/h 89% 0 mm 0 W/m2
05:24 11.4 °C 10.2 °C 1004.6 hPa West 2.3 km/h 9.7 km/h 89% 0 mm 0 W/m2
05:29 11.4 °C 10.2 °C 1004.6 hPa Calm     89% 0 mm 0 W/m2
05:34 11.5 °C 10.2 °C 1004.6 hPa NNW 3.7 km/h 9.7 km/h 89% 0 mm 0 W/m2
05:39 11.5 °C 10.2 °C 1004.6 hPa NW 4.5 km/h 8 km/h 89% 0 mm 0 W/m2
05:44 11.5 °C 10.2 °C 1004.6 hPa NW 6 km/h 9.7 km/h 89% 0 mm 0 W/m2
05:49 11.5 °C 10.2 °C 1004.6 hPa NW 2.9 km/h 9.7 km/h 89% 0 mm 0 W/m2
05:54 11.5 °C 10.3 °C 1004.6 hPa WNW 3.7 km/h 8 km/h 89.2% 0 mm 0 W/m2
05:59 11.6 °C 10.4 °C 1004.6 hPa NW 4 km/h 9.7 km/h 89.8% 0 mm 0 W/m2
06:04 11.6 °C 10.4 °C 1004.6 hPa WNW 4.3 km/h 8 km/h 90% 0 mm 0 W/m2
06:09 11.6 °C 10.5 °C 1005 hPa WNW 3.9 km/h 6.4 km/h 90% 0 mm 0 W/m2
06:14 11.6 °C 10.5 °C 1005 hPa West 3.9 km/h 9.7 km/h 90% 0 mm 0 W/m2
06:19 11.6 °C 10.5 °C 1005 hPa West 1.6 km/h 8 km/h 90% 0 mm 0 W/m2
06:24 11.6 °C 10.5 °C 1005 hPa West 2.3 km/h 6.4 km/h 90% 0 mm 0 W/m2
06:29 11.6 °C 10.5 °C 1005 hPa West 2.7 km/h 8 km/h 90% 0 mm 0 W/m2
06:34 11.6 °C 10.4 °C 1005 hPa West 1.9 km/h 6.4 km/h 90% 0 mm 0 W/m2
06:39 11.5 °C 10.4 °C 1005 hPa West 3.4 km/h 8 km/h 90% 0 mm 0 W/m2
06:44 11.5 °C 10.6 °C 1005 hPa West 4 km/h 8 km/h 90.8% 0 mm 0 W/m2
06:49 11.4 °C 10.5 °C 1005 hPa West 2.9 km/h 8 km/h 91% 0 mm 0 W/m2
06:54 11.4 °C 10.5 °C 1005 hPa WNW 4.2 km/h 8 km/h 91% 0 mm 0 W/m2
06:59 11.3 °C 10.4 °C 1005.3 hPa WNW 1.9 km/h 6.4 km/h 91% 0 mm 0 W/m2
07:04 11.3 °C 10.4 °C 1005.3 hPa WNW 0.6 km/h 4.8 km/h 91% 0 mm 0 W/m2
07:09 11.3 °C 10.4 °C 1005.3 hPa WNW 1.9 km/h 6.4 km/h 91% 0 mm 0 W/m2
07:14 11.3 °C 10.4 °C 1005.3 hPa West 6 km/h 11.3 km/h 91.2% 0 mm 0 W/m2
07:19 11.2 °C 10.4 °C 1005.6 hPa WNW 7.1 km/h 12.9 km/h 92% 0 mm 0 W/m2
07:24 10.8 °C 10 °C 1005.6 hPa NW 12.9 km/h 19.3 km/h 92% 0.25 mm 0 W/m2
07:29 10.4 °C 9.8 °C 1005.6 hPa WNW 7.4 km/h 19.3 km/h 92% 0.51 mm 0 W/m2
07:34 10.3 °C 9.6 °C 1005.6 hPa WNW 7.4 km/h 19.3 km/h 92% 0.51 mm 0 W/m2
07:39 10.2 °C 9.5 °C 1005.6 hPa NW 5.8 km/h 19.3 km/h 92% 0.51 mm 0 W/m2
07:44 10.2 °C 9.5 °C 1006 hPa WNW 6.4 km/h 12.9 km/h 92% 0.51 mm 0 W/m2
07:49 10.2 °C 9.5 °C 1006 hPa WNW 3.5 km/h 9.7 km/h 92.8% 0.51 mm 0 W/m2
07:54 10.1 °C 9.5 °C 1006.3 hPa WNW 5.5 km/h 11.3 km/h 93% 0.51 mm 0 W/m2
07:59 10.2 °C 9.6 °C 1006.3 hPa WNW 4 km/h 11.3 km/h 93% 0.51 mm 5 W/m2
08:04 10.1 °C 9.5 °C 1006.3 hPa WNW 4.3 km/h 12.9 km/h 93% 0.51 mm 11 W/m2
08:09 10.1 °C 9.4 °C 1006.3 hPa WNW 4.3 km/h 8 km/h 93% 0.51 mm 16 W/m2
08:14 9.9 °C 9.3 °C 1006.7 hPa West 6 km/h 11.3 km/h 93% 0.51 mm 19 W/m2
08:19 9.7 °C 9.1 °C 1006.7 hPa West 5.6 km/h 12.9 km/h 93% 0.51 mm 19 W/m2
08:24 9.6 °C 8.9 °C 1007 hPa West 5.8 km/h 11.3 km/h 93% 0.51 mm 16 W/m2
08:29 9.5 °C 8.9 °C 1007 hPa West 3.4 km/h 9.7 km/h 93% 0.25 mm 19 W/m2
08:34 9.5 °C 8.9 °C 1007 hPa West 1.3 km/h 8 km/h 93% 0 mm 21 W/m2
08:39 9.6 °C 8.9 °C 1007 hPa West 0.8 km/h 8 km/h 93% 0 mm 28 W/m2
08:44 9.6 °C 9 °C 1007.3 hPa West 1.3 km/h 4.8 km/h 93% 0 mm 35 W/m2
08:49 9.6 °C 9 °C 1007.3 hPa Calm   4.8 km/h 93% 0 mm 60 W/m2
08:54 9.7 °C 9.1 °C 1007.3 hPa West 1.3 km/h 6.4 km/h 93% 0 mm 67 W/m2
08:59 9.7 °C 9.1 °C 1007.3 hPa West 1.3 km/h 8 km/h 93% 0 mm 70 W/m2
09:04 9.7 °C 9.2 °C 1007.7 hPa West 1.3 km/h 4.8 km/h 93% 0 mm 74 W/m2
09:09 9.8 °C 9.2 °C 1007.7 hPa West 1 km/h 4.8 km/h 93% 0 mm 116 W/m2
09:14 9.8 °C 9.3 °C 1007.7 hPa West 1.1 km/h 6.4 km/h 93% 0 mm 123 W/m2
09:19 9.9 °C 9.3 °C 1007.7 hPa West 1.4 km/h 6.4 km/h 93% 0 mm 104 W/m2
09:24 9.8 °C 9.3 °C 1008 hPa West 2.7 km/h 6.4 km/h 93% 0 mm 116 W/m2
09:29 9.9 °C 9.3 °C 1008 hPa West 2.4 km/h 6.4 km/h 93% 0 mm 163 W/m2
09:34 10.1 °C 9.4 °C 1008 hPa West 4 km/h 11.3 km/h 93% 0 mm 111 W/m2
09:39 10.1 °C 9.4 °C 1008 hPa West 4 km/h 11.3 km/h 93% 0 mm 125 W/m2
09:44 10.1 °C 9.5 °C 1008 hPa WNW 4.5 km/h 11.3 km/h 93% 0 mm 135 W/m2
09:49 10.1 °C 9.5 °C 1008 hPa WNW 5 km/h 12.9 km/h 93% 0 mm 225 W/m2
09:54 10.2 °C 9.5 °C 1008 hPa West 7.1 km/h 11.3 km/h 92% 0 mm 281 W/m2
09:59 10.6 °C 9.8 °C 1008 hPa WNW 6.8 km/h 16.1 km/h 91.8% 0 mm 287 W/m2
10:04 10.7 °C 9.8 °C 1008 hPa West 8.5 km/h 12.9 km/h 91% 0 mm 130 W/m2
10:09 10.6 °C 9.6 °C 1008 hPa WNW 6.6 km/h 16.1 km/h 90.4% 0 mm 163 W/m2
10:14 10.6 °C 9.5 °C 1008 hPa West 4.5 km/h 11.3 km/h 90% 0 mm 223 W/m2
10:19 10.7 °C 9.5 °C 1008 hPa West 9.5 km/h 16.1 km/h 89.4% 0 mm 299 W/m2
10:24 10.7 °C 9.4 °C 1008 hPa WNW 11.3 km/h 17.7 km/h 88.6% 0 mm 383 W/m2
10:29 10.8 °C 9.4 °C 1008 hPa West 6.9 km/h 16.1 km/h 88% 0 mm 193 W/m2
10:34 10.8 °C 9.3 °C 1008 hPa WNW 8.2 km/h 14.5 km/h 87.8% 0 mm 244 W/m2
10:39 10.8 °C 9.3 °C 1008.4 hPa WNW 8.5 km/h 16.1 km/h 87.2% 0 mm 378 W/m2
10:44 11 °C 9.3 °C 1008.4 hPa WNW 8 km/h 14.5 km/h 86.8% 0 mm 285 W/m2
10:49 10.9 °C 9.2 °C 1008.4 hPa WSW 8.4 km/h 14.5 km/h 86% 0 mm 265 W/m2
10:54 11.1 °C 9.3 °C 1008.4 hPa West 6.4 km/h 12.9 km/h 85.8% 0 mm 295 W/m2
10:59 11 °C 9.1 °C 1008.4 hPa West 9 km/h 16.1 km/h 85% 0 mm 223 W/m2
11:04 11.1 °C 9.2 °C 1008.4 hPa WSW 7.6 km/h 12.9 km/h 85% 0 mm 167 W/m2
11:09 11.2 °C 9.3 °C 1008.4 hPa West 3.9 km/h 11.3 km/h 85.2% 0 mm 179 W/m2
11:14 11.3 °C 9.4 °C 1008.4 hPa West 6.8 km/h 12.9 km/h 85.8% 0 mm 190 W/m2
11:19 11.1 °C 9.2 °C 1008.4 hPa West 5.8 km/h 12.9 km/h 85% 0 mm 149 W/m2
11:24 11.2 °C 9.3 °C 1008.4 hPa West 4 km/h 11.3 km/h 85% 0 mm 155 W/m2
11:29 11.2 °C 9.3 °C 1008.7 hPa West 7.1 km/h 16.1 km/h 85% 0 mm 125 W/m2
11:34 11.2 °C 9.3 °C 1008.7 hPa West 6.3 km/h 11.3 km/h 85% 0 mm 127 W/m2
11:39 11.2 °C 9.3 °C 1008.7 hPa WNW 5.3 km/h 11.3 km/h 85% 0 mm 120 W/m2
11:44 11.2 °C 9.3 °C 1008.7 hPa West 3.9 km/h 9.7 km/h 85% 0 mm 127 W/m2
11:49 11.2 °C 9.3 °C 1008.7 hPa WNW 5.6 km/h 11.3 km/h 85% 0 mm 134 W/m2
11:54 11.2 °C 9.3 °C 1008.7 hPa West 10 km/h 16.1 km/h 85% 0 mm 120 W/m2
11:58 11.2 °C 9.3 °C 1008.7 hPa WNW 8.4 km/h 16.1 km/h 85% 0 mm 118 W/m2
12:04 11.2 °C 9.3 °C 1008.7 hPa West 7.9 km/h 12.9 km/h 85% 0 mm 111 W/m2
12:09 11.2 °C 9.3 °C 1008.7 hPa WNW 6.3 km/h 9.7 km/h 85% 0 mm 102 W/m2
12:14 11.2 °C 9.4 °C 1008.7 hPa WNW 4.5 km/h 9.7 km/h 85.4% 0 mm 81 W/m2
12:19 11.2 °C 9.4 °C 1008.7 hPa WNW 6.6 km/h 12.9 km/h 86% 0 mm 67 W/m2
12:24 11.2 °C 9.3 °C 1008.7 hPa NW 7.1 km/h 14.5 km/h 86% 0 mm 62 W/m2
12:29 11 °C 9.2 °C 1008.7 hPa West 8.7 km/h 17.7 km/h 86% 0 mm 81 W/m2
12:34 10.9 °C 9.1 °C 1008.7 hPa West 6 km/h 14.5 km/h 86% 0 mm 130 W/m2
12:39 10.9 °C 9.1 °C 1008.7 hPa WNW 6.9 km/h 12.9 km/h 86% 0 mm 141 W/m2
12:44 10.9 °C 9.1 °C 1008.7 hPa WNW 6.6 km/h 12.9 km/h 86% 0 mm 185 W/m2
12:49 11 °C 9.3 °C 1008.7 hPa WNW 6.4 km/h 11.3 km/h 86.8% 0 mm 206 W/m2
12:54 11.2 °C 9.6 °C 1008.7 hPa West 7.1 km/h 14.5 km/h 87% 0 mm 178 W/m2
12:59 11.1 °C 9.4 °C 1008.7 hPa WNW 11.3 km/h 19.3 km/h 86.5% 0 mm 188 W/m2
13:04 11.1 °C 9.2 °C 1008.7 hPa WNW 10.8 km/h 19.3 km/h 86% 0 mm 146 W/m2
13:09 11 °C 9.2 °C 1008.7 hPa West 6.8 km/h 14.5 km/h 86% 0 mm 163 W/m2
13:14 11 °C 9.2 °C 1008.7 hPa West 11.1 km/h 17.7 km/h 86% 0 mm 179 W/m2
13:19 11.1 °C 9.3 °C 1008.7 hPa WNW 10.6 km/h 16.1 km/h 86% 0 mm 181 W/m2
13:24 11.1 °C 9.3 °C 1008.7 hPa West 8.5 km/h 14.5 km/h 86% 0 mm 229 W/m2
13:29 11.2 °C 9.4 °C 1008.7 hPa West 6.1 km/h 12.9 km/h 86% 0 mm 218 W/m2
13:34 11.2 °C 9.4 °C 1008.7 hPa WNW 6 km/h 9.7 km/h 86% 0 mm 165 W/m2
13:39 11.2 °C 9.4 °C 1008.7 hPa West 6.4 km/h 12.9 km/h 86% 0 mm 178 W/m2
13:44 11.3 °C 9.4 °C 1008.7 hPa West 6.6 km/h 9.7 km/h 86% 0 mm 267 W/m2
13:49 11.4 °C 9.7 °C 1008.7 hPa WNW 5.8 km/h 12.9 km/h 86% 0 mm 264 W/m2
13:54 11.6 °C 9.8 °C 1008.7 hPa WNW 5.3 km/h 11.3 km/h 86% 0 mm 301 W/m2
13:59 11.7 °C 9.8 °C 1008.7 hPa WNW 3.9 km/h 9.7 km/h 85.4% 0 mm 394 W/m2
14:04 12.3 °C 10.2 °C 1008.7 hPa WSW 4.8 km/h 14.5 km/h 84.6% 0 mm 478 W/m2
14:09 12.7 °C 10.2 °C 1008.7 hPa WSW 6 km/h 12.9 km/h 82% 0 mm 466 W/m2
14:14 12.7 °C 9.8 °C 1008.7 hPa SW 8 km/h 16.1 km/h 80.4% 0 mm 348 W/m2
14:19 12.5 °C 9.6 °C 1008.7 hPa West 9.2 km/h 16.1 km/h 79.8% 0 mm 220 W/m2
14:24 12.3 °C 9.3 °C 1008.7 hPa West 6.3 km/h 16.1 km/h 79.4% 0 mm 167 W/m2
14:29 12.3 °C 9.4 °C 1008.7 hPa WSW 5.5 km/h 12.9 km/h 80% 0 mm 162 W/m2
14:34 12.3 °C 9.4 °C 1008.7 hPa WSW 8.7 km/h 16.1 km/h 80% 0 mm 163 W/m2
14:39 12.2 °C 9.3 °C 1008.7 hPa West 6.4 km/h 16.1 km/h 80% 0 mm 227 W/m2
14:44 12.3 °C 9.3 °C 1008.7 hPa WSW 10.8 km/h 14.5 km/h 80% 0 mm 167 W/m2
14:49 12.2 °C 9.3 °C 1008.7 hPa WSW 6.1 km/h 14.5 km/h 80% 0 mm 142 W/m2
14:54 12.3 °C 9.3 °C 1008.7 hPa West 3.9 km/h 11.3 km/h 80% 0 mm 120 W/m2
14:59 12.3 °C 9.3 °C 1008.7 hPa WNW 6.8 km/h 9.7 km/h 80% 0 mm 118 W/m2
15:04 12.2 °C 9.2 °C 1008.7 hPa West 5.3 km/h 11.3 km/h 79.6% 0 mm 118 W/m2
15:09 12.2 °C 9.2 °C 1008.7 hPa West 7.9 km/h 14.5 km/h 79.8% 0 mm 98 W/m2
15:14 12.1 °C 9.2 °C 1008.7 hPa West 6.4 km/h 12.9 km/h 80% 0 mm 102 W/m2
15:19 12.1 °C 9.1 °C 1008.7 hPa West 7.6 km/h 14.5 km/h 79.4% 0 mm 125 W/m2
15:24 12 °C 9 °C 1008.7 hPa WSW 7.4 km/h 16.1 km/h 79% 0 mm 142 W/m2
15:29 12 °C 9 °C 1008.7 hPa West 6.1 km/h 11.3 km/h 79% 0 mm 128 W/m2
15:34 12.1 °C 9 °C 1008.7 hPa SW 9.5 km/h 14.5 km/h 78.8% 0 mm 93 W/m2
15:39 12 °C 9 °C 1008.7 hPa SW 7.9 km/h 14.5 km/h 79% 0 mm 113 W/m2
15:44 12.1 °C 8.9 °C 1008.7 hPa West 5.1 km/h 11.3 km/h 78.6% 0 mm 121 W/m2
15:49 12.1 °C 9.1 °C 1008.7 hPa WNW 7.2 km/h 14.5 km/h 78.8% 0 mm 172 W/m2
15:54 12 °C 8.8 °C 1008.7 hPa WNW 5.5 km/h 14.5 km/h 78% 0 mm 116 W/m2
15:59 11.9 °C 8.7 °C 1009 hPa West 6.8 km/h 16.1 km/h 78% 0 mm 132 W/m2
16:04 11.9 °C 8.7 °C 1009 hPa West 6.6 km/h 14.5 km/h 78% 0 mm 183 W/m2
16:09 11.9 °C 8.7 °C 1009 hPa West 7.1 km/h 12.9 km/h 78% 0 mm 151 W/m2
16:14 12.1 °C 8.9 °C 1009 hPa West 5.5 km/h 9.7 km/h 78% 0 mm 104 W/m2
16:19 12.1 °C 8.9 °C 1009 hPa West 4 km/h 8 km/h 78% 0 mm 105 W/m2
16:24 12.1 °C 8.9 °C 1009 hPa West 3.9 km/h 9.7 km/h 78% 0 mm 156 W/m2
16:29 12.1 °C 8.9 °C 1009 hPa WSW 4.7 km/h 8 km/h 78% 0 mm 121 W/m2
16:34 12.1 °C 8.9 °C 1009 hPa West 4.7 km/h 9.7 km/h 78% 0 mm 105 W/m2
16:39 12.1 °C 8.9 °C 1009 hPa WNW 2.6 km/h 8 km/h 78% 0 mm 97 W/m2
16:44 12.1 °C 8.9 °C 1009 hPa West 3.2 km/h 8 km/h 78% 0 mm 79 W/m2
16:49 12.1 °C 8.9 °C 1009 hPa West 4.8 km/h 9.7 km/h 78.2% 0 mm 51 W/m2
16:54 11.9 °C 8.9 °C 1009 hPa West 3.5 km/h 9.7 km/h 79% 0 mm 46 W/m2
16:59 11.9 °C 8.9 °C 1009 hPa WNW 4 km/h 6.4 km/h 79% 0 mm 47 W/m2
17:04 11.8 °C 8.8 °C 1009 hPa WNW 6.8 km/h 11.3 km/h 79.2% 0 mm 46 W/m2
17:09 11.8 °C 8.9 °C 1009 hPa WNW 4.5 km/h 8 km/h 80% 0 mm 40 W/m2
17:14 11.7 °C 8.9 °C 1009 hPa NW 2.7 km/h 8 km/h 80% 0 mm 46 W/m2
17:19 11.7 °C 8.9 °C 1009 hPa NW 3.4 km/h 9.7 km/h 80% 0 mm 46 W/m2
17:24 11.7 °C 8.9 °C 1009 hPa WNW 2.4 km/h 6.4 km/h 80% 0 mm 40 W/m2
17:29 11.6 °C 8.8 °C 1009 hPa WNW 3.9 km/h 9.7 km/h 80% 0 mm 30 W/m2
17:33 11.5 °C 8.7 °C 1009 hPa WNW 5.6 km/h 9.7 km/h 80% 0 mm 25 W/m2
17:39 11.4 °C 8.6 °C 1009 hPa WNW 3.2 km/h 6.4 km/h 80% 0 mm 19 W/m2
17:44 11.4 °C 8.6 °C 1009 hPa WNW 2.7 km/h 9.7 km/h 80% 0 mm 16 W/m2
17:49 11.4 °C 8.7 °C 1009 hPa West 4 km/h 8 km/h 81% 0 mm 12 W/m2
17:54 11.3 °C 8.6 °C 1009 hPa WNW 3.4 km/h 9.7 km/h 81% 0 mm 11 W/m2
17:59 11.2 °C 8.5 °C 1009 hPa West 3.2 km/h 6.4 km/h 81% 0 mm 5 W/m2
18:04 11.2 °C 8.5 °C 1009 hPa West 1.6 km/h 6.4 km/h 81% 0 mm 5 W/m2
18:09 11.1 °C 8.5 °C 1009 hPa West 1.3 km/h 6.4 km/h 81% 0 mm 0 W/m2
18:14 11 °C 8.4 °C 1009.4 hPa West 0.3 km/h 3.2 km/h 81% 0 mm 0 W/m2
18:19 10.9 °C 8.4 °C 1009.4 hPa Calm     82% 0 mm 0 W/m2
18:24 10.8 °C 8.3 °C 1009.4 hPa Calm     82% 0 mm 0 W/m2
18:29 10.8 °C 8.3 °C 1009.4 hPa Calm     82% 0 mm 0 W/m2
18:34 10.8 °C 8.5 °C 1009.4 hPa Calm     83% 0 mm 0 W/m2
18:39 10.7 °C 8.4 °C 1009.7 hPa West 1 km/h 4.8 km/h 83% 0 mm 0 W/m2
18:44 10.7 °C 8.4 °C 1009.7 hPa Calm   3.2 km/h 83% 0 mm 0 W/m2
18:49 10.7 °C 8.4 °C 1009.7 hPa West 1 km/h 3.2 km/h 83% 0 mm 0 W/m2
18:54 10.6 °C 8.4 °C 1009.7 hPa Calm     83.8% 0 mm 0 W/m2
18:59 10.7 °C 8.6 °C 1009.7 hPa Calm     84% 0 mm 0 W/m2
19:04 10.7 °C 8.6 °C 1009.7 hPa Calm     84% 0 mm 0 W/m2
19:09 10.6 °C 8.5 °C 1010 hPa Calm     84% 0 mm 0 W/m2
19:14 10.7 °C 8.7 °C 1009.7 hPa Calm     84.3% 0 mm 0 W/m2
19:19 10.7 °C 8.8 °C 1010 hPa Calm     85% 0 mm 0 W/m2
19:24 10.6 °C 8.7 °C 1009.7 hPa Calm     85% 0 mm 0 W/m2
19:29 10.6 °C 8.7 °C 1009.7 hPa Calm     85% 0 mm 0 W/m2
19:34 10.6 °C 8.7 °C 1009.7 hPa Calm     85% 0 mm 0 W/m2
19:39 10.6 °C 8.7 °C 1009.7 hPa Calm     85% 0 mm 0 W/m2
19:44 10.5 °C 8.6 °C 1010 hPa Calm     85% 0 mm 0 W/m2
19:49 10.4 °C 8.6 °C 1009.7 hPa Calm     85.8% 0 mm 0 W/m2
19:54 10.4 °C 8.6 °C 1010 hPa Calm     86% 0 mm 0 W/m2
19:59 10.5 °C 8.7 °C 1010 hPa Calm     86% 0 mm 0 W/m2
20:04 10.6 °C 8.8 °C 1010 hPa Calm     86% 0 mm 0 W/m2
20:09 10.7 °C 9.1 °C 1010 hPa Calm     87% 0 mm 0 W/m2
20:14 10.7 °C 9.1 °C 1010 hPa Calm     87% 0 mm 0 W/m2
20:19 10.7 °C 9.1 °C 1009.7 hPa Calm     87% 0 mm 0 W/m2
20:24 10.7 °C 9.1 °C 1009.7 hPa Calm     87% 0 mm 0 W/m2
20:29 10.6 °C 9 °C 1009.7 hPa Calm     87% 0 mm 0 W/m2
20:34 10.6 °C 9 °C 1010 hPa Calm     87% 0 mm 0 W/m2
20:39 10.6 °C 9 °C 1010 hPa Calm     87% 0 mm 0 W/m2
20:44 10.6 °C 9 °C 1010 hPa Calm     87% 0 mm 0 W/m2
20:49 10.6 °C 9.1 °C 1010 hPa Calm     87.6% 0 mm 0 W/m2
20:54 10.5 °C 9.1 °C 1009.7 hPa Calm     88% 0 mm 0 W/m2
20:59 10.4 °C 9.1 °C 1009.7 hPa Calm     88% 0 mm 0 W/m2
21:04 10.4 °C 9.1 °C 1009.7 hPa Calm     88% 0 mm 0 W/m2
21:09 10.4 °C 9 °C 1009.7 hPa Calm     88% 0 mm 0 W/m2
21:14 10.3 °C 8.9 °C 1010 hPa Calm     88% 0 mm 0 W/m2
21:19 10.3 °C 8.9 °C 1010 hPa Calm     88% 0 mm 0 W/m2
21:24 10.3 °C 8.9 °C 1010 hPa Calm     88% 0 mm 0 W/m2
21:29 10.4 °C 9 °C 1010 hPa Calm     88% 0 mm 0 W/m2
21:34 10.4 °C 9.1 °C 1010 hPa Calm     88.4% 0 mm 0 W/m2
21:39 10.4 °C 9.2 °C 1009.7 hPa Calm     89% 0 mm 0 W/m2
21:44 10.4 °C 9.2 °C 1009.7 hPa Calm     89% 0 mm 0 W/m2
21:49 10.4 °C 9.2 °C 1009.7 hPa Calm     89% 0 mm 0 W/m2
21:54 10.4 °C 9.2 °C 1009.7 hPa Calm     89% 0 mm 0 W/m2
21:59 10.3 °C 9.1 °C 1009.7 hPa Calm     89% 0 mm 0 W/m2
22:04 10.3 °C 9.1 °C 1009.7 hPa Calm     89% 0 mm 0 W/m2
22:09 10.3 °C 9.1 °C 1009.7 hPa Calm     89% 0 mm 0 W/m2
22:14 10.3 °C 9.1 °C 1009.7 hPa Calm     89% 0 mm 0 W/m2
22:19 10.3 °C 9.1 °C 1009.7 hPa Calm     89% 0 mm 0 W/m2
22:24 10.3 °C 9.1 °C 1009.7 hPa Calm     89% 0 mm 0 W/m2
22:29 10.3 °C 9.1 °C 1009.7 hPa Calm     89% 0 mm 0 W/m2
22:34 10.2 °C 9.1 °C 1009.4 hPa Calm     89% 0 mm 0 W/m2
22:39 10.3 °C 9.1 °C 1009.4 hPa Calm     89% 0 mm 0 W/m2
22:44 10.3 °C 9.1 °C 1009.4 hPa Calm     89% 0 mm 0 W/m2
22:49 10.3 °C 9.1 °C 1009.4 hPa Calm     89% 0 mm 0 W/m2
22:54 10.3 °C 9.2 °C 1009.4 hPa Calm     89% 0 mm 0 W/m2
22:59 10.3 °C 9.1 °C 1009.4 hPa Calm   1.6 km/h 89% 0 mm 0 W/m2
23:04 10.3 °C 9.1 °C 1009.4 hPa Calm   3.2 km/h 89% 0 mm 0 W/m2
23:09 10.3 °C 9.1 °C 1009.4 hPa Calm     89% 0 mm 0 W/m2
23:14 10.3 °C 9.1 °C 1009.4 hPa Calm     89% 0 mm 0 W/m2
23:19 10.3 °C 9.1 °C 1009.4 hPa Calm     89% 0 mm 0 W/m2
23:24 10.3 °C 9.1 °C 1009 hPa Calm     89% 0 mm 0 W/m2
23:29 10.3 °C 9.1 °C 1009 hPa Calm   3.2 km/h 89% 0 mm 0 W/m2
23:34 10.3 °C 9.1 °C 1009 hPa West 0.3 km/h 4.8 km/h 89% 0 mm 0 W/m2
23:39 10.3 °C 9.1 °C 1009 hPa West 1 km/h 3.2 km/h 89% 0 mm 0 W/m2
23:44 10.3 °C 9.1 °C 1009 hPa West 1.4 km/h 4.8 km/h 89% 0 mm 0 W/m2
23:49 10.2 °C 9.1 °C 1009 hPa East 3.2 km/h 4.8 km/h 89% 0 mm 0 W/m2
23:54 10.2 °C 9 °C 1009 hPa SE 1.6 km/h 6.4 km/h 89% 0 mm 0 W/m2
23:59 10.1 °C 8.9 °C 1009 hPa SE 2.3 km/h 6.4 km/h 89% 0 mm 0 W/m2
Bath Spa Weather
Compliments of Weather Underground - 2 mb